createdAt,value
2023-01-17T00:00:43.926Z,89996.56
2023-01-17T00:02:06.890Z,89993.09
2023-01-17T00:03:29.022Z,89990.19
2023-01-17T00:05:09.102Z,89991.38
2023-01-17T00:06:49.277Z,89996.44
2023-01-17T00:08:32.481Z,89987.13
2023-01-17T00:09:54.321Z,89971.38
2023-01-17T00:11:15.917Z,89991.41
2023-01-17T00:12:37.746Z,89976.44
2023-01-17T00:14:00.876Z,89970.31
2023-01-17T00:15:23.905Z,89973.41
2023-01-17T00:16:45.822Z,89968.50
2023-01-17T00:18:07.649Z,89966.38
2023-01-17T00:19:47.828Z,89953.91
2023-01-17T00:21:27.823Z,89952.88
2023-01-17T00:23:08.367Z,89950.16
2023-01-17T00:24:48.481Z,89948.56
2023-01-17T00:26:16.818Z,89959.22
2023-01-17T00:27:38.470Z,89953.97
2023-01-17T00:29:00.244Z,89960.44
2023-01-17T00:30:22.309Z,89970.56
2023-01-17T00:31:43.966Z,89963.59
2023-01-17T00:33:06.505Z,89947.03
2023-01-17T00:34:28.376Z,89938.97
2023-01-17T00:35:51.979Z,89946.31
2023-01-17T00:37:13.581Z,89958.72
2023-01-17T00:38:37.787Z,89963.00
2023-01-17T00:39:59.307Z,89976.31
2023-01-17T00:41:21.261Z,89964.63
2023-01-17T00:42:48.149Z,89962.25
2023-01-17T00:44:28.724Z,89954.13
2023-01-17T00:46:09.812Z,89956.56
2023-01-17T00:47:50.016Z,89957.16
2023-01-17T00:49:30.035Z,89949.19
2023-01-17T00:51:10.146Z,89947.09
2023-01-17T00:52:50.495Z,89960.13
2023-01-17T00:54:31.305Z,89953.50
2023-01-17T00:56:11.405Z,89944.31
2023-01-17T00:57:51.795Z,89954.75
2023-01-17T00:59:32.110Z,89952.00
2023-01-17T01:01:13.690Z,89953.50
2023-01-17T01:02:54.597Z,89959.22
2023-01-17T01:04:35.090Z,89972.06
2023-01-17T01:06:15.138Z,89980.66
2023-01-17T01:07:55.215Z,89989.41
2023-01-17T01:09:35.338Z,89969.69
2023-01-17T01:11:15.485Z,89959.97
2023-01-17T01:12:55.754Z,89963.28
2023-01-17T01:14:36.213Z,89957.66
2023-01-17T01:16:21.121Z,89951.22
2023-01-17T01:18:01.490Z,89959.03
2023-01-17T01:19:41.527Z,89965.09
2023-01-17T01:21:22.126Z,89967.06
2023-01-17T01:23:02.046Z,89959.25
2023-01-17T01:24:42.337Z,89956.16
2023-01-17T01:26:23.468Z,89959.31
2023-01-17T01:28:03.468Z,89952.31
2023-01-17T01:29:43.348Z,89954.28
2023-01-17T01:31:25.326Z,89972.41
2023-01-17T01:33:05.454Z,89981.78
2023-01-17T01:34:27.571Z,89973.63
2023-01-17T01:35:54.484Z,89961.16
2023-01-17T01:37:16.263Z,89970.69
2023-01-17T01:38:38.168Z,89965.63
2023-01-17T01:40:00.121Z,89961.53
2023-01-17T01:41:21.876Z,89963.28
2023-01-17T01:42:56.287Z,89958.66
2023-01-17T01:44:44.183Z,89946.19
2023-01-17T01:46:06.952Z,89947.19
2023-01-17T01:47:37.033Z,89952.44
2023-01-17T01:49:14.654Z,89958.50
2023-01-17T01:50:37.665Z,89966.09
2023-01-17T01:52:02.345Z,89963.00
2023-01-17T01:53:24.917Z,89950.91
2023-01-17T01:54:54.074Z,89961.81
2023-01-17T01:56:17.272Z,89966.09
2023-01-17T01:57:42.498Z,89958.72
2023-01-17T01:59:07.444Z,89967.06
2023-01-17T02:00:36.337Z,89967.06
2023-01-17T02:01:58.408Z,89961.25
2023-01-17T02:03:29.580Z,89945.28
2023-01-17T02:04:52.060Z,89938.66
2023-01-17T02:06:32.390Z,89940.97
2023-01-17T02:08:07.725Z,89932.59
2023-01-17T02:09:29.373Z,89938.25
2023-01-17T02:10:52.210Z,89926.56
2023-01-17T02:12:14.516Z,89935.72
2023-01-17T02:13:36.660Z,89935.91
2023-01-17T02:14:58.797Z,89932.41
2023-01-17T02:16:45.434Z,89936.13
2023-01-17T02:18:27.372Z,89928.53
2023-01-17T02:20:05.901Z,89932.81
2023-01-17T02:21:43.263Z,89931.84
2023-01-17T02:23:35.537Z,89921.88
2023-01-17T02:25:25.223Z,89920.94
2023-01-17T02:27:20.815Z,89909.03
2023-01-17T02:29:20.087Z,89925.00
2023-01-17T02:30:51.396Z,89919.34
2023-01-17T02:32:35.234Z,89928.53
2023-01-17T02:33:56.900Z,89931.25
2023-01-17T02:35:42.971Z,89932.81
2023-01-17T02:37:21.584Z,89941.19
2023-01-17T02:38:54.444Z,89919.34
2023-01-17T02:40:23.512Z,89915.88
2023-01-17T02:41:49.770Z,89918.41
2023-01-17T02:43:16.880Z,89916.44
2023-01-17T02:44:43.196Z,89920.50
2023-01-17T02:46:05.462Z,89917.41
2023-01-17T02:47:31.923Z,89908.84
2023-01-17T02:48:56.387Z,89911.56
2023-01-17T02:50:23.781Z,89925.78
2023-01-17T02:52:14.573Z,89920.50
2023-01-17T02:54:26.267Z,89913.91
2023-01-17T02:56:08.104Z,89908.84
2023-01-17T02:58:03.621Z,89908.84
2023-01-17T02:59:48.767Z,89919.16
2023-01-17T03:01:45.105Z,89921.69
2023-01-17T03:03:44.805Z,89917.63
2023-01-17T03:05:36.646Z,89911.56
2023-01-17T03:07:04.526Z,89904.97
2023-01-17T03:08:27.664Z,89908.44
2023-01-17T03:09:53.607Z,89904.97
2023-01-17T03:11:16.597Z,89901.44
2023-01-17T03:12:39.963Z,89896.78
2023-01-17T03:14:01.719Z,89900.06
2023-01-17T03:15:23.444Z,89909.44
2023-01-17T03:16:45.609Z,89907.66
2023-01-17T03:18:13.979Z,89905.91
2023-01-17T03:19:35.659Z,89901.44
2023-01-17T03:20:57.404Z,89899.09
2023-01-17T03:22:19.253Z,89907.50
2023-01-17T03:23:41.141Z,89910.97
2023-01-17T03:25:03.124Z,89910.97
2023-01-17T03:26:24.669Z,89909.22
2023-01-17T03:27:46.798Z,89910.03
2023-01-17T03:29:08.445Z,89910.03
2023-01-17T03:30:30.731Z,89921.09
2023-01-17T03:31:52.477Z,89911.75
2023-01-17T03:33:16.221Z,89917.63
2023-01-17T03:34:37.985Z,89904.97
2023-01-17T03:36:00.407Z,89904.97
2023-01-17T03:37:22.488Z,89897.38
2023-01-17T03:38:44.671Z,89899.91
2023-01-17T03:40:07.136Z,89904.97
2023-01-17T03:41:28.839Z,89904.97
2023-01-17T03:42:50.913Z,89898.13
2023-01-17T03:44:12.669Z,89893.06
2023-01-17T03:45:34.886Z,89904.16
2023-01-17T03:46:56.578Z,89897.53
2023-01-17T03:48:18.906Z,89895.78
2023-01-17T03:49:40.842Z,89907.66
2023-01-17T03:51:02.525Z,89903.38
2023-01-17T03:52:24.219Z,89902.44
2023-01-17T03:53:47.044Z,89910.03
2023-01-17T03:55:09.301Z,89904.16
2023-01-17T03:56:30.913Z,89912.56
2023-01-17T03:57:53.015Z,89921.69
2023-01-17T03:59:14.650Z,89917.63
2023-01-17T04:00:37.041Z,89918.41
2023-01-17T04:01:58.931Z,89913.34
2023-01-17T04:03:20.831Z,89910.81
2023-01-17T04:04:42.904Z,89914.28
2023-01-17T04:06:04.712Z,89916.03
2023-01-17T04:07:26.566Z,89914.50
2023-01-17T04:08:49.490Z,89911.19
2023-01-17T04:10:11.409Z,89912.72
2023-01-17T04:11:33.549Z,89913.50
2023-01-17T04:12:55.662Z,89917.81
2023-01-17T04:14:18.117Z,89919.56
2023-01-17T04:15:40.371Z,89926.16
2023-01-17T04:17:04.206Z,89937.28
2023-01-17T04:18:25.872Z,89932.22
2023-01-17T04:19:48.200Z,89937.28
2023-01-17T04:21:09.879Z,89938.06
2023-01-17T04:22:31.884Z,89935.72
2023-01-17T04:23:53.709Z,89936.72
2023-01-17T04:25:15.894Z,89928.13
2023-01-17T04:26:37.526Z,89911.19
2023-01-17T04:28:01.339Z,89912.16
2023-01-17T04:29:23.249Z,89903.03
2023-01-17T04:30:45.342Z,89908.88
2023-01-17T04:32:07.639Z,89900.50
2023-01-17T04:33:30.263Z,89909.84
2023-01-17T04:34:52.091Z,89918.22
2023-01-17T04:36:14.067Z,89926.78
2023-01-17T04:37:36.792Z,89932.06
2023-01-17T04:38:58.466Z,89933.63
2023-01-17T04:40:20.514Z,89940.44
2023-01-17T04:41:43.972Z,89949.78
2023-01-17T04:43:05.580Z,89942.75
2023-01-17T04:44:27.539Z,89944.53
2023-01-17T04:45:54.131Z,89945.28
2023-01-17T04:47:15.782Z,89960.28
2023-01-17T04:48:37.802Z,89955.22
2023-01-17T04:49:59.496Z,89963.38
2023-01-17T04:51:21.401Z,89964.38
2023-01-17T04:52:43.247Z,89974.28
2023-01-17T04:54:05.225Z,89979.34
2023-01-17T04:55:27.701Z,89977.81
2023-01-17T04:56:49.491Z,89986.00
2023-01-17T04:58:11.391Z,89981.69
2023-01-17T04:59:33.183Z,89976.63
2023-01-17T05:00:55.169Z,89975.88
2023-01-17T05:02:17.278Z,89988.53
2023-01-17T05:03:39.018Z,89984.25
2023-01-17T05:05:00.866Z,89975.06
2023-01-17T05:06:22.429Z,89979.34
2023-01-17T05:07:44.519Z,89967.28
2023-01-17T05:09:06.895Z,89978.56
2023-01-17T05:10:28.717Z,89979.34
2023-01-17T05:11:50.793Z,89986.94
2023-01-17T05:13:12.628Z,90001.19
2023-01-17T05:14:34.593Z,89997.69
2023-01-17T05:15:58.390Z,89985.00
2023-01-17T05:17:20.340Z,89976.63
2023-01-17T05:18:42.001Z,89971.38
2023-01-17T05:20:03.944Z,89979.53
2023-01-17T05:21:25.614Z,89974.69
2023-01-17T05:22:55.629Z,89982.28
2023-01-17T05:24:18.070Z,89972.34
2023-01-17T05:25:44.941Z,89973.69
2023-01-17T05:27:06.964Z,89972.16
2023-01-17T05:28:28.616Z,89981.50
2023-01-17T05:29:50.523Z,89988.31
2023-01-17T05:31:12.751Z,89984.25
2023-01-17T05:32:34.848Z,89991.06
2023-01-17T05:33:56.836Z,89989.31
2023-01-17T05:35:20.682Z,89997.69
2023-01-17T05:36:42.616Z,89991.22
2023-01-17T05:38:04.764Z,89985.19
2023-01-17T05:39:27.041Z,89976.81
2023-01-17T05:40:49.245Z,89978.97
2023-01-17T05:42:13.612Z,89986.56
2023-01-17T05:43:35.165Z,89992.59
2023-01-17T05:44:57.317Z,89990.06
2023-01-17T05:46:19.198Z,89995.91
2023-01-17T05:47:41.242Z,89996.69
2023-01-17T05:49:03.159Z,89993.38
2023-01-17T05:50:28.571Z,90007.59
2023-01-17T05:51:50.374Z,89999.22
2023-01-17T05:53:14.618Z,90001.75
2023-01-17T05:54:36.304Z,90007.38
2023-01-17T05:55:58.319Z,90008.38
2023-01-17T05:57:20.284Z,90003.88
2023-01-17T05:58:42.001Z,89994.88
2023-01-17T06:00:04.919Z,90000.72
2023-01-17T06:01:26.532Z,90011.63
2023-01-17T06:02:48.998Z,90016.69
2023-01-17T06:04:10.686Z,90015.72
2023-01-17T06:05:32.648Z,90016.69
2023-01-17T06:06:54.637Z,90003.06
2023-01-17T06:08:16.434Z,90007.34
2023-01-17T06:09:38.496Z,90012.19
2023-01-17T06:11:00.291Z,90014.94
2023-01-17T06:12:22.249Z,90007.34
2023-01-17T06:13:44.333Z,90009.28
2023-01-17T06:15:07.000Z,90014.34
2023-01-17T06:16:29.669Z,90013.38
2023-01-17T06:17:51.827Z,90017.66
2023-01-17T06:19:13.622Z,90012.03
2023-01-17T06:20:35.988Z,90007.72
2023-01-17T06:21:57.951Z,90005.75
2023-01-17T06:23:20.011Z,90006.53
2023-01-17T06:24:41.566Z,90013.94
2023-01-17T06:26:04.555Z,90005.75
2023-01-17T06:27:26.279Z,90010.41
2023-01-17T06:28:48.332Z,90010.78
2023-01-17T06:30:10.829Z,90009.22
2023-01-17T06:31:33.088Z,90005.72
2023-01-17T06:32:55.850Z,90004.94
2023-01-17T06:34:18.123Z,90003.94
2023-01-17T06:35:44.263Z,90017.19
2023-01-17T06:37:06.644Z,90023.78
2023-01-17T06:38:29.916Z,90018.50
2023-01-17T06:39:51.947Z,89999.78
2023-01-17T06:41:13.942Z,89998.81
2023-01-17T06:42:35.825Z,89994.16
2023-01-17T06:43:57.649Z,89997.09
2023-01-17T06:45:19.929Z,89998.22
2023-01-17T06:46:41.702Z,89991.56
2023-01-17T06:48:05.344Z,89995.84
2023-01-17T06:49:27.317Z,90004.03
2023-01-17T06:50:49.938Z,90012.59
2023-01-17T06:52:12.143Z,90001.50
2023-01-17T06:53:34.096Z,90005.59
2023-01-17T06:54:55.921Z,90004.41
2023-01-17T06:56:17.899Z,90013.75
2023-01-17T06:57:39.867Z,90018.41
2023-01-17T06:59:01.970Z,90017.66
2023-01-17T07:00:23.820Z,90013.34
2023-01-17T07:01:45.875Z,90000.69
2023-01-17T07:03:17.424Z,90000.88
2023-01-17T07:04:39.324Z,89995.41
2023-01-17T07:06:05.232Z,90006.66
2023-01-17T07:07:26.893Z,90005.50
2023-01-17T07:08:48.976Z,90006.28
2023-01-17T07:10:12.730Z,90006.06
2023-01-17T07:11:34.276Z,90001.97
2023-01-17T07:13:00.790Z,89999.25
2023-01-17T07:14:22.485Z,90003.31
2023-01-17T07:15:44.571Z,90003.13
2023-01-17T07:17:06.368Z,89997.28
2023-01-17T07:18:28.758Z,90001.91
2023-01-17T07:19:50.645Z,89998.41
2023-01-17T07:21:14.311Z,89996.06
2023-01-17T07:22:37.833Z,89999.03
2023-01-17T07:23:59.631Z,90010.50
2023-01-17T07:25:21.704Z,90012.06
2023-01-17T07:26:43.752Z,90019.66
2023-01-17T07:28:05.860Z,90022.97
2023-01-17T07:29:27.855Z,90024.53
2023-01-17T07:30:50.392Z,90018.69
2023-01-17T07:32:12.220Z,90021.44
2023-01-17T07:33:34.268Z,90034.66
2023-01-17T07:34:58.810Z,90038.41
2023-01-17T07:36:20.327Z,90028.47
2023-01-17T07:37:51.187Z,90023.19
2023-01-17T07:39:13.173Z,90017.91
2023-01-17T07:40:41.786Z,90012.63
2023-01-17T07:42:04.127Z,90025.69
2023-01-17T07:43:26.301Z,90028.38
2023-01-17T07:44:48.624Z,90021.31
2023-01-17T07:46:10.453Z,90018.78
2023-01-17T07:47:34.031Z,90024.06
2023-01-17T07:48:56.222Z,90024.84
2023-01-17T07:50:18.188Z,90021.53
2023-01-17T07:51:40.174Z,90020.13
2023-01-17T07:53:01.799Z,90032.25
2023-01-17T07:54:23.723Z,90021.88
2023-01-17T07:55:45.571Z,90032.59
2023-01-17T07:57:12.683Z,90040.97
2023-01-17T07:58:35.327Z,90042.34
2023-01-17T07:59:59.274Z,90049.75
2023-01-17T08:01:21.021Z,90043.13
2023-01-17T08:02:42.710Z,90042.13
2023-01-17T08:04:04.585Z,90046.00
2023-01-17T08:05:27.678Z,90060.25
2023-01-17T08:06:51.743Z,90071.16
2023-01-17T08:08:13.405Z,90072.50
2023-01-17T08:09:35.188Z,90069.19
2023-01-17T08:10:57.494Z,90065.09
2023-01-17T08:12:19.376Z,90071.53
2023-01-17T08:13:41.874Z,90068.97
2023-01-17T08:15:03.634Z,90065.09
2023-01-17T08:16:26.058Z,90042.81
2023-01-17T08:17:49.408Z,90042.94
2023-01-17T08:19:11.163Z,90055.97
2023-01-17T08:20:32.799Z,90058.31
2023-01-17T08:21:54.831Z,90052.28
2023-01-17T08:23:17.041Z,90061.03
2023-01-17T08:24:39.228Z,90056.16
2023-01-17T08:26:02.064Z,90053.97
2023-01-17T08:27:24.020Z,90046.72
2023-01-17T08:28:45.736Z,90043.56
2023-01-17T08:30:08.619Z,90049.03
2023-01-17T08:31:35.315Z,90051.44
2023-01-17T08:32:57.662Z,90049.09
2023-01-17T08:34:19.380Z,90052.97
2023-01-17T08:35:50.510Z,90043.59
2023-01-17T08:37:12.184Z,90038.09
2023-01-17T08:38:34.194Z,90044.34
2023-01-17T08:39:56.267Z,90034.75
2023-01-17T08:41:18.066Z,90039.06
2023-01-17T08:42:41.013Z,90039.25
2023-01-17T08:44:03.367Z,90043.56
2023-01-17T08:45:25.613Z,90056.03
2023-01-17T08:46:47.412Z,90060.34
2023-01-17T08:48:09.279Z,90057.22
2023-01-17T08:49:30.922Z,90059.56
2023-01-17T08:50:52.983Z,90062.50
2023-01-17T08:52:15.715Z,90059.34
2023-01-17T08:53:37.667Z,90051.19
2023-01-17T08:54:59.418Z,90038.50
2023-01-17T08:56:21.879Z,90041.47
2023-01-17T08:57:43.972Z,90052.00
2023-01-17T08:59:05.787Z,90053.38
2023-01-17T09:00:28.600Z,90060.41
2023-01-17T09:01:52.482Z,90050.25
2023-01-17T09:03:14.626Z,90049.47
2023-01-17T09:04:36.438Z,90044.22
2023-01-17T09:06:10.600Z,90036.59
2023-01-17T09:07:32.433Z,90044.56
2023-01-17T09:08:54.904Z,90040.03
2023-01-17T09:10:16.944Z,90043.91
2023-01-17T09:11:38.982Z,90029.47
2023-01-17T09:13:01.039Z,90023.63
2023-01-17T09:14:22.950Z,90031.44
2023-01-17T09:15:44.450Z,90037.50
2023-01-17T09:17:07.158Z,90024.34
2023-01-17T09:18:30.080Z,90004.59
2023-01-17T09:19:52.293Z,89992.44
2023-01-17T09:21:16.535Z,89996.31
2023-01-17T09:22:39.137Z,90003.50
2023-01-17T09:24:01.156Z,90001.34
2023-01-17T09:25:23.011Z,90003.44
2023-01-17T09:26:44.953Z,90007.09
2023-01-17T09:28:06.977Z,90014.94
2023-01-17T09:29:28.931Z,90023.13
2023-01-17T09:30:51.063Z,90019.59
2023-01-17T09:32:12.656Z,90006.59
2023-01-17T09:33:35.077Z,90002.31
2023-01-17T09:35:00.792Z,90005.97
2023-01-17T09:36:23.947Z,90004.19
2023-01-17T09:37:48.691Z,90000.25
2023-01-17T09:39:11.820Z,89992.66
2023-01-17T09:40:34.201Z,89977.88
2023-01-17T09:42:11.745Z,89959.22
2023-01-17T09:43:40.840Z,89958.56
2023-01-17T09:45:03.063Z,89968.19
2023-01-17T09:46:30.068Z,89965.00
2023-01-17T09:47:54.750Z,89966.31
2023-01-17T09:49:28.499Z,89974.72
2023-01-17T09:51:21.619Z,89975.72
2023-01-17T09:52:43.353Z,89970.63
2023-01-17T09:54:05.506Z,89971.88
2023-01-17T09:55:35.091Z,89963.38
2023-01-17T09:57:23.404Z,89957.97
2023-01-17T09:58:59.483Z,89957.75
2023-01-17T10:00:30.639Z,89958.75
2023-01-17T10:02:17.087Z,89952.91
2023-01-17T10:04:05.739Z,89949.25
2023-01-17T10:05:37.512Z,89951.47
2023-01-17T10:07:25.147Z,89964.75
2023-01-17T10:08:58.564Z,89967.50
2023-01-17T10:10:39.172Z,89963.63
2023-01-17T10:12:28.752Z,89955.47
2023-01-17T10:14:11.434Z,89955.25
2023-01-17T10:16:02.204Z,89953.78
2023-01-17T10:17:43.726Z,89953.03
2023-01-17T10:19:38.272Z,89955.13
2023-01-17T10:21:11.059Z,89947.63
2023-01-17T10:22:44.542Z,89955.94
2023-01-17T10:24:16.654Z,89942.22
2023-01-17T10:26:03.075Z,89945.06
2023-01-17T10:27:48.242Z,89944.63
2023-01-17T10:29:20.186Z,89944.91
2023-01-17T10:31:11.239Z,89930.75
2023-01-17T10:32:34.838Z,89932.66
2023-01-17T10:34:21.816Z,89934.66
2023-01-17T10:35:57.077Z,89936.66
2023-01-17T10:37:27.640Z,89923.91
2023-01-17T10:38:56.962Z,89922.91
2023-01-17T10:40:19.168Z,89931.78
2023-01-17T10:41:45.212Z,89929.69
2023-01-17T10:43:49.220Z,89925.16
2023-01-17T10:45:28.976Z,89922.16
2023-01-17T10:47:06.192Z,89920.72
2023-01-17T10:48:43.571Z,89915.31
2023-01-17T10:50:05.703Z,89905.25
2023-01-17T10:51:50.822Z,89908.44
2023-01-17T10:53:40.895Z,89907.13
2023-01-17T10:55:18.809Z,89908.44
2023-01-17T10:56:42.031Z,89902.13
2023-01-17T10:58:04.074Z,89899.81
2023-01-17T10:59:34.347Z,89900.72
2023-01-17T11:01:00.802Z,89908.38
2023-01-17T11:02:33.196Z,89900.72
2023-01-17T11:03:55.374Z,89910.97
2023-01-17T11:05:29.646Z,89905.13
2023-01-17T11:07:11.986Z,89904.78
2023-01-17T11:08:51.279Z,89910.50
2023-01-17T11:10:54.283Z,89920.91
2023-01-17T11:12:45.851Z,89925.03
2023-01-17T11:14:22.125Z,89928.47
2023-01-17T11:15:50.004Z,89927.72
2023-01-17T11:17:12.509Z,89917.31
2023-01-17T11:18:39.926Z,89915.06
2023-01-17T11:20:12.687Z,89922.72
2023-01-17T11:21:36.673Z,89932.66
2023-01-17T11:23:29.645Z,89926.78
2023-01-17T11:24:56.199Z,89915.38
2023-01-17T11:26:30.335Z,89902.00
2023-01-17T11:28:02.539Z,89892.38
2023-01-17T11:29:40.888Z,89883.41
2023-01-17T11:31:10.067Z,89885.41
2023-01-17T11:32:34.612Z,89886.97
2023-01-17T11:34:17.774Z,89886.19
2023-01-17T11:35:45.328Z,89878.78
2023-01-17T11:37:17.224Z,89879.97
2023-01-17T11:38:39.168Z,89875.47
2023-01-17T11:40:21.105Z,89874.22
2023-01-17T11:41:43.789Z,89866.13
2023-01-17T11:43:18.760Z,89856.41
2023-01-17T11:44:40.823Z,89855.84
2023-01-17T11:46:15.809Z,89859.94
2023-01-17T11:47:37.741Z,89856.06
2023-01-17T11:49:01.838Z,89866.03
2023-01-17T11:50:27.658Z,89853.09
2023-01-17T11:51:49.592Z,89849.44
2023-01-17T11:53:28.094Z,89848.66
2023-01-17T11:54:51.524Z,89870.13
2023-01-17T11:56:20.468Z,89857.94
2023-01-17T11:57:42.948Z,89854.09
2023-01-17T11:59:25.778Z,89844.00
2023-01-17T12:01:09.715Z,89842.75
2023-01-17T12:02:37.824Z,89839.31
2023-01-17T12:04:22.879Z,89846.38
2023-01-17T12:05:59.780Z,89840.97
2023-01-17T12:07:30.876Z,89840.97
2023-01-17T12:08:55.577Z,89831.25
2023-01-17T12:10:26.240Z,89832.34
2023-01-17T12:12:09.474Z,89834.56
2023-01-17T12:14:02.297Z,89833.50
2023-01-17T12:16:21.507Z,89833.34
2023-01-17T12:17:53.853Z,89840.88
2023-01-17T12:19:34.438Z,89832.84
2023-01-17T12:21:21.307Z,89830.06
2023-01-17T12:22:48.640Z,89822.59
2023-01-17T12:24:25.169Z,89823.69
2023-01-17T12:26:02.766Z,89832.19
2023-01-17T12:27:58.964Z,89829.72
2023-01-17T12:29:52.856Z,89819.78
2023-01-17T12:31:46.473Z,89809.34
2023-01-17T12:33:08.312Z,89807.56
2023-01-17T12:34:53.546Z,89816.59
2023-01-17T12:36:31.117Z,89826.34
2023-01-17T12:38:05.307Z,89811.50
2023-01-17T12:39:39.987Z,89814.38
2023-01-17T12:41:20.757Z,89815.63
2023-01-17T12:42:49.851Z,89816.78
2023-01-17T12:44:16.194Z,89820.88
2023-01-17T12:45:45.169Z,89823.19
2023-01-17T12:47:07.500Z,89824.22
2023-01-17T12:48:35.918Z,89831.53
2023-01-17T12:50:06.833Z,89825.50
2023-01-17T12:51:37.565Z,89816.25
2023-01-17T12:53:24.358Z,89817.25
2023-01-17T12:54:51.908Z,89816.09
2023-01-17T12:56:24.314Z,89801.09
2023-01-17T12:58:00.243Z,89802.44
2023-01-17T12:59:40.438Z,89815.78
2023-01-17T13:01:29.677Z,89801.31
2023-01-17T13:03:07.300Z,89800.06
2023-01-17T13:04:58.468Z,89798.22
2023-01-17T13:06:36.071Z,89792.78
2023-01-17T13:08:34.509Z,89795.22
2023-01-17T13:10:22.596Z,89806.50
2023-01-17T13:12:06.931Z,89810.97
2023-01-17T13:13:30.614Z,89804.91
2023-01-17T13:14:52.875Z,89810.50
2023-01-17T13:16:27.647Z,89812.56
2023-01-17T13:17:55.777Z,89817.28
2023-01-17T13:19:52.898Z,89823.88
2023-01-17T13:21:35.382Z,89825.50
2023-01-17T13:23:06.751Z,89827.22
2023-01-17T13:24:38.410Z,89827.44
2023-01-17T13:26:02.107Z,89828.47
2023-01-17T13:27:29.917Z,89835.56
2023-01-17T13:29:35.630Z,89839.81
2023-01-17T13:31:19.204Z,89838.63
2023-01-17T13:32:53.047Z,89842.97
2023-01-17T13:34:29.504Z,89851.19
2023-01-17T13:36:09.900Z,89852.25
2023-01-17T13:37:45.734Z,89853.72
2023-01-17T13:39:19.868Z,89848.53
2023-01-17T13:40:49.975Z,89842.19
2023-01-17T13:42:17.893Z,89845.19
2023-01-17T13:44:02.335Z,89832.69
2023-01-17T13:45:30.870Z,89839.88
2023-01-17T13:47:27.628Z,89841.13
2023-01-17T13:49:33.297Z,89842.66
2023-01-17T13:50:57.734Z,89829.13
2023-01-17T13:52:25.152Z,89822.25
2023-01-17T13:53:47.316Z,89827.53
2023-01-17T13:55:28.246Z,89822.34
2023-01-17T13:56:50.081Z,89827.00
2023-01-17T13:58:50.137Z,89835.19
2023-01-17T14:00:21.521Z,89829.38
2023-01-17T14:01:46.375Z,89830.00
2023-01-17T14:03:12.018Z,89821.81
2023-01-17T14:05:08.056Z,89823.56
2023-01-17T14:06:49.098Z,89821.19
2023-01-17T14:08:17.415Z,89831.97
2023-01-17T14:09:44.247Z,89825.81
2023-01-17T14:11:09.998Z,89821.38
2023-01-17T14:12:33.528Z,89821.03
2023-01-17T14:13:56.093Z,89814.22
2023-01-17T14:15:24.401Z,89809.41
2023-01-17T14:16:46.569Z,89822.53
2023-01-17T14:18:39.015Z,89828.09
2023-01-17T14:20:10.045Z,89815.81
2023-01-17T14:21:32.434Z,89809.63
2023-01-17T14:23:01.981Z,89814.41
2023-01-17T14:24:23.815Z,89814.41
2023-01-17T14:25:45.823Z,89822.53
2023-01-17T14:27:23.498Z,89816.97
2023-01-17T14:28:45.523Z,89811.31
2023-01-17T14:30:17.537Z,89814.31
2023-01-17T14:31:40.386Z,89820.47
2023-01-17T14:33:02.304Z,89816.72
2023-01-17T14:34:25.191Z,89814.94
2023-01-17T14:35:53.221Z,89820.81
2023-01-17T14:37:29.512Z,89816.66
2023-01-17T14:38:51.474Z,89820.16
2023-01-17T14:40:16.904Z,89815.59
2023-01-17T14:41:38.798Z,89812.97
2023-01-17T14:43:02.999Z,89802.59
2023-01-17T14:44:24.883Z,89796.66
2023-01-17T14:45:47.511Z,89799.19
2023-01-17T14:47:14.267Z,89808.63
2023-01-17T14:48:41.077Z,89805.78
2023-01-17T14:50:21.962Z,89811.50
2023-01-17T14:51:43.881Z,89807.97
2023-01-17T14:53:15.425Z,89824.50
2023-01-17T14:54:37.105Z,89819.41
2023-01-17T14:56:11.733Z,89819.88
2023-01-17T14:57:33.347Z,89817.63
2023-01-17T14:59:06.603Z,89811.22
2023-01-17T15:00:35.053Z,89805.75
2023-01-17T15:02:08.023Z,89816.09
2023-01-17T15:03:43.264Z,89818.16
2023-01-17T15:05:05.477Z,89825.50
2023-01-17T15:06:38.029Z,89823.66
2023-01-17T15:08:00.247Z,89828.13
2023-01-17T15:09:37.147Z,89827.53
2023-01-17T15:11:07.584Z,89827.97
2023-01-17T15:12:29.915Z,89838.16
2023-01-17T15:13:57.393Z,89839.94
2023-01-17T15:15:35.311Z,89843.25
2023-01-17T15:16:57.048Z,89844.25
2023-01-17T15:18:21.472Z,89841.19
2023-01-17T15:19:53.977Z,89840.09
2023-01-17T15:21:19.648Z,89847.97
2023-01-17T15:22:41.540Z,89850.28
2023-01-17T15:24:08.231Z,89857.84
2023-01-17T15:25:30.748Z,89857.28
2023-01-17T15:26:52.861Z,89860.06
2023-01-17T15:28:15.275Z,89862.84
2023-01-17T15:29:37.314Z,89866.41
2023-01-17T15:31:14.488Z,89872.72
2023-01-17T15:32:38.041Z,89866.88
2023-01-17T15:34:05.497Z,89871.41
2023-01-17T15:35:28.410Z,89875.97
2023-01-17T15:36:51.107Z,89861.91
2023-01-17T15:38:15.727Z,89849.16
2023-01-17T15:39:40.568Z,89854.47
2023-01-17T15:41:12.303Z,89857.03
2023-01-17T15:42:37.431Z,89860.81
2023-01-17T15:43:59.836Z,89865.91
2023-01-17T15:45:26.791Z,89867.91
2023-01-17T15:46:49.075Z,89873.00
2023-01-17T15:48:37.499Z,89878.56
2023-01-17T15:50:00.418Z,89890.00
2023-01-17T15:51:35.636Z,89895.06
2023-01-17T15:53:06.384Z,89899.41
2023-01-17T15:54:44.854Z,89897.41
2023-01-17T15:56:33.567Z,89896.06
2023-01-17T15:57:55.803Z,89908.00
2023-01-17T15:59:40.731Z,89907.81
2023-01-17T16:01:02.650Z,89901.16
2023-01-17T16:02:30.236Z,89891.19
2023-01-17T16:03:55.857Z,89891.97
2023-01-17T16:05:31.076Z,89888.09
2023-01-17T16:06:52.866Z,89891.41
2023-01-17T16:08:22.938Z,89887.56
2023-01-17T16:09:45.415Z,89883.00
2023-01-17T16:11:10.549Z,89879.91
2023-01-17T16:12:32.629Z,89877.59
2023-01-17T16:13:54.589Z,89881.69
2023-01-17T16:15:18.383Z,89878.03
2023-01-17T16:16:40.388Z,89878.78
2023-01-17T16:18:14.758Z,89883.13
2023-01-17T16:19:36.896Z,89884.44
2023-01-17T16:21:13.147Z,89886.88
2023-01-17T16:22:35.031Z,89904.16
2023-01-17T16:23:58.291Z,89894.31
2023-01-17T16:25:22.971Z,89904.94
2023-01-17T16:26:44.571Z,89905.94
2023-01-17T16:28:06.651Z,89912.78
2023-01-17T16:29:28.514Z,89911.78
2023-01-17T16:30:53.991Z,89914.81
2023-01-17T16:32:15.703Z,89904.59
2023-01-17T16:33:39.276Z,89906.38
2023-01-17T16:35:01.163Z,89905.94
2023-01-17T16:36:23.105Z,89903.38
2023-01-17T16:37:48.015Z,89893.41
2023-01-17T16:39:14.376Z,89883.69
2023-01-17T16:40:43.939Z,89893.41
2023-01-17T16:42:05.883Z,89893.19
2023-01-17T16:43:27.636Z,89901.59
2023-01-17T16:44:49.571Z,89903.38
2023-01-17T16:46:15.324Z,89886.56
2023-01-17T16:47:37.107Z,89873.50
2023-01-17T16:49:02.006Z,89873.28
2023-01-17T16:50:25.129Z,89876.75
2023-01-17T16:51:47.833Z,89881.00
2023-01-17T16:53:09.990Z,89879.34
2023-01-17T16:54:31.621Z,89860.13
2023-01-17T16:55:57.159Z,89867.00
2023-01-17T16:57:19.957Z,89858.56
2023-01-17T16:58:41.942Z,89871.88
2023-01-17T17:00:04.395Z,89884.94
2023-01-17T17:01:26.109Z,89877.06
2023-01-17T17:02:52.446Z,89881.38
2023-01-17T17:04:14.316Z,89883.50
2023-01-17T17:05:37.455Z,89900.00
2023-01-17T17:06:59.529Z,89899.91
2023-01-17T17:08:21.526Z,89884.66
2023-01-17T17:09:43.451Z,89886.97
2023-01-17T17:11:20.663Z,89897.75
2023-01-17T17:12:43.388Z,89908.09
2023-01-17T17:14:04.931Z,89907.22
2023-01-17T17:15:26.956Z,89895.69
2023-01-17T17:16:51.792Z,89894.63
2023-01-17T17:18:16.535Z,89889.53